Time;durP1;ratioP1;P1;durP2;ratioP2;P2;SDS_P1;SDS_P2;PMS_P1;PMS_P2;Temp;Humidity;BMP_temperature;BMP_pressure;BME280_temperature;BME280_humidity;BME280_pressure;Samples;Min_cycle;Max_cycle;Signal;HPM_P1;HPM_P2
2022/01/18 00:01:26;;;;;;;8.03;1.37;;;6.00;99.90;;;;;;4974945;28;20300;-66
2022/01/18 00:03:54;;;;;;;4.93;1.60;;;6.00;99.90;;;;;;4974646;28;20238;-66
2022/01/18 00:06:24;;;;;;;9.63;1.33;;;5.90;99.90;;;;;;5007435;28;20676;-66
2022/01/18 00:08:52;;;;;;;9.93;1.37;;;6.00;99.90;;;;;;4974630;28;20258;-66
2022/01/18 00:11:23;;;;;;;10.17;1.50;;;5.90;99.90;;;;;;4974648;28;20312;-66
2022/01/18 00:13:58;;;;;;;11.67;1.67;;;5.90;99.90;;;;;;4974740;28;20242;-67
2022/01/18 00:16:30;;;;;;;6.37;1.53;;;5.90;99.90;;;;;;5007852;28;20241;-66
2022/01/18 00:19:05;;;;;;;13.60;1.97;;;6.00;99.90;;;;;;4997536;28;20296;-66
2022/01/18 00:21:50;;;;;;;6.37;1.37;;;6.00;99.90;;;;;;4993573;28;20237;-65
2022/01/18 00:24:18;;;;;;;8.20;1.33;;;6.00;99.90;;;;;;4993797;28;20283;-66
2022/01/18 00:26:46;;;;;;;5.60;1.10;;;6.00;99.90;;;;;;5000550;28;20240;-67
2022/01/18 00:29:18;;;;;;;6.67;1.10;;;6.00;99.90;;;;;;5008632;28;20253;-67
2022/01/18 00:31:58;;;;;;;6.80;1.53;;;6.00;99.90;;;;;;4993633;28;20729;-67
2022/01/18 00:34:30;;;;;;;11.23;1.60;;;6.00;99.90;;;;;;4993234;28;20485;-66
2022/01/18 00:37:24;;;;;;;16.67;2.13;;;6.00;99.90;;;;;;4993221;28;20292;-66
2022/01/18 00:39:52;;;;;;;6.90;1.13;;;6.00;99.90;;;;;;4974114;28;20238;-66
2022/01/18 00:42:20;;;;;;;7.50;1.40;;;6.00;99.90;;;;;;4976245;28;20235;-66
2022/01/18 00:44:48;;;;;;;7.40;1.43;;;6.00;99.90;;;;;;4995935;28;20236;-67
2022/01/18 00:47:16;;;;;;;5.10;1.50;;;6.00;99.90;;;;;;4995756;28;20833;-67
2022/01/18 00:49:46;;;;;;;7.67;1.40;;;6.10;99.90;;;;;;4993301;28;20329;-66
2022/01/18 00:52:19;;;;;;;8.60;1.70;;;6.10;99.90;;;;;;4993208;28;20598;-66
2022/01/18 00:54:47;;;;;;;9.57;1.60;;;6.10;99.90;;;;;;4997464;28;20249;-67
2022/01/18 00:57:15;;;;;;;9.30;1.10;;;6.10;99.90;;;;;;5002605;28;20237;-66
2022/01/18 00:59:46;;;;;;;10.80;1.53;;;6.10;99.90;;;;;;4993163;28;20540;-66
2022/01/18 01:02:17;;;;;;;9.27;1.50;;;6.10;99.90;;;;;;4992954;28;20245;-66
2022/01/18 01:04:48;;;;;;;11.73;2.20;;;6.10;99.90;;;;;;4995145;28;20234;-66
2022/01/18 01:07:21;;;;;;;7.17;1.80;;;6.00;99.90;;;;;;4995119;28;20237;-67
2022/01/18 01:09:50;;;;;;;6.63;1.27;;;6.00;99.90;;;;;;4992866;28;20245;-66
2022/01/18 01:12:19;;;;;;;13.00;1.80;;;6.00;99.90;;;;;;4992842;28;20328;-67
2022/01/18 01:14:51;;;;;;;7.83;1.40;;;6.00;99.90;;;;;;4995190;28;20245;-66
2022/01/18 01:17:35;;;;;;;7.47;1.40;;;6.00;99.90;;;;;;4995246;28;20295;-66
2022/01/18 01:41:40;;;;;;;9.90;1.80;;;6.00;99.90;;;;;;5011765;28;20316;-66
2022/01/18 01:43:12;;;;;;;13.07;1.80;;;6.00;99.90;;;;;;4975846;28;21013;-67
2022/01/18 01:45:41;;;;;;;6.40;1.70;;;6.00;99.90;;;;;;4984725;28;20706;-67
2022/01/18 01:48:10;;;;;;;9.80;1.80;;;5.90;99.90;;;;;;4992272;28;20234;-67
2022/01/18 01:50:47;;;;;;;7.80;1.60;;;5.90;99.90;;;;;;4991890;28;20756;-67
2022/01/18 01:53:17;;;;;;;9.23;1.57;;;5.90;99.90;;;;;;4991552;28;20280;-67
2022/01/18 01:55:48;;;;;;;8.13;1.47;;;6.00;99.90;;;;;;5010996;28;20279;-67
2022/01/18 01:58:16;;;;;;;9.60;1.50;;;5.90;99.90;;;;;;5001651;28;20241;-66
2022/01/18 02:00:48;;;;;;;11.70;1.67;;;5.90;99.90;;;;;;4991976;28;20241;-67
2022/01/18 02:03:17;;;;;;;11.17;1.67;;;5.90;99.90;;;;;;4996120;28;20251;-66
2022/01/18 02:05:46;;;;;;;11.40;1.73;;;5.90;99.90;;;;;;4975677;28;20265;-67
2022/01/18 02:08:15;;;;;;;7.23;1.57;;;5.90;99.90;;;;;;4990976;28;20329;-67
2022/01/18 02:10:44;;;;;;;11.57;1.97;;;6.00;99.90;;;;;;4972401;28;20240;-67
2022/01/18 02:13:15;;;;;;;12.43;1.90;;;5.90;99.90;;;;;;4971151;28;20297;-66
2022/01/18 02:15:59;;;;;;;12.23;2.13;;;5.90;99.90;;;;;;4972464;28;20258;-66
2022/01/18 02:24:02;;;;;;;10.27;2.10;;;6.30;99.90;;;;;;5005266;28;20256;-66
2022/01/18 02:26:30;;;;;;;8.47;1.80;;;6.10;99.90;;;;;;5010968;28;20229;-67
2022/01/18 02:29:00;;;;;;;9.17;1.80;;;6.10;99.90;;;;;;4996658;28;20634;-67
2022/01/18 02:31:28;;;;;;;8.57;1.87;;;6.00;99.90;;;;;;4999781;28;20238;-66
2022/01/18 02:34:00;;;;;;;8.87;2.07;;;6.00;99.90;;;;;;4991300;28;20245;-67
2022/01/18 02:36:30;;;;;;;10.07;1.63;;;6.00;99.90;;;;;;4991357;28;20859;-67
2022/01/18 02:38:59;;;;;;;11.40;2.03;;;6.00;99.90;;;;;;4991083;28;20305;-67
2022/01/18 02:41:30;;;;;;;9.10;1.93;;;6.00;99.90;;;;;;4997622;28;20241;-66
2022/01/18 02:44:01;;;;;;;9.40;2.10;;;6.00;99.90;;;;;;4991354;28;20668;-66
2022/01/18 02:46:30;;;;;;;7.70;1.87;;;6.00;99.90;;;;;;4998079;28;20295;-66
2022/01/18 02:49:00;;;;;;;10.10;2.00;;;6.00;99.90;;;;;;4994800;28;20244;-66
2022/01/18 02:51:30;;;;;;;11.50;2.43;;;6.00;99.90;;;;;;4990817;28;20333;-66
2022/01/18 02:54:01;;;;;;;14.07;2.10;;;6.00;99.90;;;;;;4991141;28;20669;-66
2022/01/18 02:56:32;;;;;;;9.97;2.33;;;6.00;99.90;;;;;;4991113;28;20249;-66
2022/01/18 02:59:12;;;;;;;10.57;2.03;;;6.00;99.90;;;;;;4997457;28;20295;-66
2022/01/18 03:04:27;;;;;;;12.50;1.87;;;6.10;99.90;;;;;;4990675;28;20268;-67
2022/01/18 03:06:56;;;;;;;12.70;1.70;;;6.10;99.90;;;;;;4997184;28;20238;-67
2022/01/18 03:09:24;;;;;;;12.80;2.00;;;6.00;99.90;;;;;;4991486;28;20292;-66
2022/01/18 03:11:52;;;;;;;12.17;2.00;;;6.00;99.90;;;;;;5010692;28;20229;-66
2022/01/18 03:14:21;;;;;;;8.73;2.00;;;6.00;99.90;;;;;;4991885;28;20641;-66
2022/01/18 03:16:49;;;;;;;8.57;1.60;;;6.10;99.90;;;;;;4991029;28;20571;-66
2022/01/18 03:19:17;;;;;;;5.33;1.70;;;6.20;99.90;;;;;;4991266;28;20245;-66
2022/01/18 03:21:45;;;;;;;5.43;1.37;;;6.20;99.90;;;;;;4998221;28;20241;-66
2022/01/18 03:24:32;;;;;;;7.77;1.73;;;6.30;99.90;;;;;;4991021;28;20243;-67
2022/01/18 03:29:46;;;;;;;9.50;1.93;;;6.30;99.90;;;;;;4993739;28;20252;-67
2022/01/18 03:32:14;;;;;;;11.57;1.97;;;6.30;99.90;;;;;;4998333;28;20234;-66
2022/01/18 03:34:44;;;;;;;8.30;1.63;;;6.50;99.90;;;;;;4997989;28;20234;-67
2022/01/18 03:37:15;;;;;;;10.37;1.67;;;6.30;99.90;;;;;;4990936;28;20321;-66
2022/01/18 03:39:44;;;;;;;8.20;1.70;;;6.20;99.90;;;;;;4990445;28;20253;-66
2022/01/18 03:42:35;;;;;;;7.93;1.80;;;6.40;99.90;;;;;;4997841;28;20234;-66
2022/01/18 03:45:05;;;;;;;8.23;1.50;;;6.50;99.90;;;;;;4990668;28;20234;-66
2022/01/18 03:47:33;;;;;;;9.33;1.90;;;6.50;99.90;;;;;;5002031;28;20246;-66
2022/01/18 03:50:02;;;;;;;11.40;2.00;;;6.60;99.90;;;;;;4996304;28;20717;-66
2022/01/18 03:52:30;;;;;;;7.60;1.67;;;6.40;99.90;;;;;;5008772;28;20633;-66
2022/01/18 03:54:59;;;;;;;9.03;1.70;;;6.60;99.90;;;;;;4994298;28;20241;-66
2022/01/18 03:57:27;;;;;;;7.87;1.70;;;6.90;99.90;;;;;;4994064;28;20240;-67
2022/01/18 03:59:58;;;;;;;7.70;1.53;;;6.80;99.90;;;;;;4994198;28;20634;-67
2022/01/18 04:02:27;;;;;;;9.10;1.90;;;6.70;99.90;;;;;;5001111;28;20567;-65
2022/01/18 04:04:55;;;;;;;10.50;1.90;;;6.60;99.90;;;;;;4994265;28;20313;-66
2022/01/18 04:07:23;;;;;;;6.70;1.67;;;6.40;99.90;;;;;;4999879;28;20254;-66
2022/01/18 04:09:51;;;;;;;5.40;1.50;;;6.40;99.90;;;;;;4998297;28;20237;-66
2022/01/18 04:12:22;;;;;;;8.13;1.77;;;6.40;99.90;;;;;;5011041;28;20670;-66
2022/01/18 04:14:50;;;;;;;6.97;1.93;;;6.30;99.90;;;;;;4993892;28;20719;-66
2022/01/18 04:17:32;;;;;;;6.97;1.40;;;6.50;99.90;;;;;;4994272;28;20256;-66
2022/01/18 04:25:55;;;;;;;11.30;2.47;;;6.70;99.90;;;;;;4993464;28;20484;-67
2022/01/18 04:28:33;;;;;;;9.97;1.73;;;6.60;99.90;;;;;;5002420;28;20437;-66
2022/01/18 04:31:02;;;;;;;8.53;1.70;;;6.40;99.90;;;;;;5002866;28;20232;-67
2022/01/18 04:33:31;;;;;;;10.03;1.87;;;6.60;99.90;;;;;;5001008;28;20248;-66
2022/01/18 04:35:59;;;;;;;9.80;2.00;;;7.10;99.90;;;;;;4993539;28;20591;-67
2022/01/18 04:38:30;;;;;;;11.27;2.33;;;7.10;99.90;;;;;;4993023;28;20242;-66
2022/01/18 04:41:04;;;;;;;11.30;1.80;;;7.20;99.90;;;;;;4990264;28;20234;-66
2022/01/18 04:43:47;;;;;;;11.33;2.03;;;7.30;99.90;;;;;;4995550;28;20242;-66
2022/01/18 04:49:08;;;;;;;13.27;2.27;;;7.40;99.90;;;;;;4958074;28;20258;-67
2022/01/18 04:51:36;;;;;;;9.77;1.93;;;7.20;99.90;;;;;;5011655;28;20245;-66
2022/01/18 04:54:07;;;;;;;9.80;1.97;;;7.00;99.90;;;;;;4996305;28;20300;-65
2022/01/18 04:59:24;;;;;;;7.53;1.87;;;6.70;99.90;;;;;;4992731;28;20274;-66
2022/01/18 05:01:52;;;;;;;9.67;2.10;;;6.70;99.90;;;;;;4997538;28;20238;-66
2022/01/18 05:04:20;;;;;;;10.43;2.07;;;6.60;99.90;;;;;;4993596;28;20234;-66
2022/01/18 05:06:48;;;;;;;10.87;2.33;;;6.50;99.90;;;;;;4987405;28;20230;-67
2022/01/18 05:09:16;;;;;;;9.07;2.47;;;6.40;99.90;;;;;;4986708;28;20731;-66
2022/01/18 05:11:52;;;;;;;10.37;2.40;;;6.40;99.90;;;;;;4982157;28;20238;-66
2022/01/18 05:14:29;;;;;;;10.47;2.77;;;6.40;99.90;;;;;;4981043;28;20686;-66
2022/01/18 05:17:09;;;;;;;14.53;3.20;;;6.30;99.90;;;;;;4982429;28;20641;-67
2022/01/18 05:19:45;;;;;;;18.80;3.60;;;6.30;99.90;;;;;;4986541;28;20240;-66
2022/01/18 05:25:02;;;;;;;16.83;3.77;;;6.40;99.90;;;;;;4983356;28;20233;-66
2022/01/18 05:27:34;;;;;;;15.20;3.70;;;6.30;99.90;;;;;;4987260;28;20245;-66
2022/01/18 05:30:03;;;;;;;17.03;3.50;;;6.40;99.90;;;;;;4987815;28;20232;-66
2022/01/18 05:32:32;;;;;;;20.00;3.80;;;6.50;99.90;;;;;;4975254;28;20253;-66
2022/01/18 05:35:00;;;;;;;18.13;4.73;;;6.60;99.90;;;;;;4973095;28;20329;-66
2022/01/18 05:37:29;;;;;;;18.93;4.03;;;6.50;99.90;;;;;;4972760;28;20329;-65
2022/01/18 05:39:57;;;;;;;18.23;4.23;;;6.60;99.90;;;;;;4972721;28;20325;-66
2022/01/18 05:42:25;;;;;;;24.67;4.97;;;6.60;99.90;;;;;;4988597;28;20719;-66
2022/01/18 05:44:53;;;;;;;20.60;5.40;;;6.50;99.90;;;;;;4992604;28;20706;-66
2022/01/18 05:47:21;;;;;;;21.63;4.60;;;6.40;99.90;;;;;;5003447;28;20237;-66
2022/01/18 05:49:56;;;;;;;23.13;5.40;;;6.40;99.90;;;;;;4996702;28;20295;-66
2022/01/18 05:52:24;;;;;;;25.47;4.90;;;6.40;99.90;;;;;;5008580;28;20768;-66
2022/01/18 05:54:52;;;;;;;23.40;5.17;;;6.40;99.90;;;;;;4992103;28;20233;-66
2022/01/18 05:57:20;;;;;;;27.47;6.10;;;6.40;99.90;;;;;;4991906;28;20237;-65
2022/01/18 05:59:53;;;;;;;24.83;5.73;;;6.70;99.90;;;;;;4991916;28;20238;-67
2022/01/18 06:02:35;;;;;;;25.10;5.30;;;6.80;99.90;;;;;;4994579;28;20756;-66
2022/01/18 06:07:54;;;;;;;27.30;5.33;;;6.90;99.90;;;;;;5000852;28;20233;-66
2022/01/18 06:10:22;;;;;;;28.20;5.53;;;6.70;99.90;;;;;;4987121;28;20250;-66
2022/01/18 06:12:50;;;;;;;26.17;5.43;;;6.50;99.90;;;;;;4991940;28;20694;-66
2022/01/18 06:15:19;;;;;;;27.63;5.20;;;6.50;99.90;;;;;;4984692;28;20246;-67
2022/01/18 06:17:47;;;;;;;24.93;5.50;;;6.40;99.90;;;;;;4988528;28;20301;-66
2022/01/18 06:20:17;;;;;;;26.53;4.80;;;6.40;99.90;;;;;;4990208;28;20238;-67
2022/01/18 06:22:45;;;;;;;24.93;4.80;;;6.40;99.90;;;;;;4983627;28;20234;-64
2022/01/18 06:25:14;;;;;;;28.93;4.50;;;6.40;99.90;;;;;;4966741;28;20607;-63
2022/01/18 06:27:43;;;;;;;24.73;5.37;;;6.40;99.90;;;;;;4981329;28;20241;-63
2022/01/18 06:30:13;;;;;;;22.33;4.50;;;6.40;99.90;;;;;;4975375;28;20281;-63
2022/01/18 06:32:44;;;;;;;27.33;4.13;;;6.40;99.90;;;;;;4972064;28;20328;-63
2022/01/18 06:35:16;;;;;;;24.80;4.53;;;6.40;99.90;;;;;;4995229;28;20877;-64
2022/01/18 06:37:45;;;;;;;23.33;5.03;;;6.50;99.90;;;;;;4990050;28;20919;-64
2022/01/18 06:40:15;;;;;;;19.10;3.97;;;6.70;99.90;;;;;;4990877;28;20296;-63
2022/01/18 06:42:43;;;;;;;23.30;4.10;;;6.70;99.90;;;;;;4988987;28;20264;-64
2022/01/18 06:45:12;;;;;;;21.70;3.87;;;6.70;99.90;;;;;;4991686;28;20247;-64
2022/01/18 06:47:40;;;;;;;30.73;5.23;;;7.00;99.90;;;;;;4991968;28;20899;-64
2022/01/18 06:50:10;;;;;;;28.13;4.47;;;7.10;99.90;;;;;;4989010;28;20296;-64
2022/01/18 06:52:39;;;;;;;26.87;4.30;;;7.20;99.90;;;;;;4989829;28;20340;-64
2022/01/18 06:55:09;;;;;;;20.30;4.13;;;7.40;99.90;;;;;;4992901;28;20675;-64
2022/01/18 06:57:40;;;;;;;30.67;4.67;;;7.30;99.90;;;;;;4989895;28;20238;-64
2022/01/18 07:00:11;;;;;;;26.03;4.80;;;7.50;99.90;;;;;;4991792;28;20246;-63
2022/01/18 07:02:40;;;;;;;24.90;5.20;;;7.60;99.90;;;;;;4991201;28;20249;-63
2022/01/18 07:05:08;;;;;;;29.57;4.10;;;7.70;99.90;;;;;;4986404;28;20242;-64
2022/01/18 07:07:37;;;;;;;34.07;5.00;;;7.70;99.90;;;;;;4992516;28;20252;-63
2022/01/18 07:10:06;;;;;;;27.93;4.73;;;7.70;99.90;;;;;;4993506;28;20254;-64
2022/01/18 07:12:36;;;;;;;20.97;3.80;;;7.70;99.90;;;;;;4990496;28;20324;-63
2022/01/18 07:15:06;;;;;;;23.23;3.83;;;7.30;99.90;;;;;;4989392;28;20237;-64
2022/01/18 07:17:38;;;;;;;18.37;3.83;;;7.10;99.90;;;;;;4986573;28;20238;-64
2022/01/18 07:20:07;;;;;;;23.43;4.23;;;6.90;99.90;;;;;;4986253;28;20260;-63
2022/01/18 07:22:35;;;;;;;19.27;4.13;;;7.00;99.90;;;;;;4984037;28;20234;-64
2022/01/18 07:25:10;;;;;;;20.03;4.33;;;6.80;99.90;;;;;;4986044;28;20337;-63
2022/01/18 07:27:40;;;;;;;18.83;4.20;;;6.60;99.90;;;;;;4988031;28;21210;-64
2022/01/18 07:30:11;;;;;;;18.33;3.87;;;6.50;99.90;;;;;;4989628;28;20249;-64
2022/01/18 07:32:39;;;;;;;19.80;4.30;;;6.50;99.90;;;;;;4987871;28;20300;-64
2022/01/18 07:35:09;;;;;;;13.90;3.70;;;6.40;99.90;;;;;;4989734;28;20245;-64
2022/01/18 07:37:37;;;;;;;22.27;4.30;;;6.40;99.90;;;;;;4989237;28;20679;-64
2022/01/18 07:40:06;;;;;;;18.00;3.90;;;6.40;99.90;;;;;;4989610;28;20242;-64
2022/01/18 07:42:37;;;;;;;19.90;3.10;;;6.40;99.90;;;;;;4987873;28;20688;-64
2022/01/18 07:45:08;;;;;;;19.17;4.03;;;6.50;99.90;;;;;;4989684;28;20311;-64
2022/01/18 07:47:36;;;;;;;18.53;3.33;;;6.50;99.90;;;;;;4989301;28;20296;-64
2022/01/18 07:50:05;;;;;;;24.13;3.90;;;6.40;99.90;;;;;;4989399;28;20241;-64
2022/01/18 07:52:35;;;;;;;21.10;3.90;;;6.50;99.90;;;;;;4987629;28;20332;-64
2022/01/18 07:55:10;;;;;;;20.03;3.77;;;6.40;99.90;;;;;;4989202;28;20369;-64
2022/01/18 07:57:42;;;;;;;15.93;3.23;;;6.50;99.90;;;;;;4989142;28;20252;-64
2022/01/18 08:00:16;;;;;;;18.20;3.40;;;6.40;99.90;;;;;;4989262;28;20687;-64
2022/01/18 08:02:46;;;;;;;17.00;2.97;;;6.40;99.90;;;;;;4987695;28;20845;-63
2022/01/18 08:05:15;;;;;;;18.80;3.00;;;6.60;99.90;;;;;;4988903;28;20769;-63
2022/01/18 08:07:48;;;;;;;16.57;2.73;;;6.70;99.90;;;;;;4988404;28;20257;-64
2022/01/18 08:10:18;;;;;;;14.37;2.87;;;6.70;99.90;;;;;;4989224;28;20291;-64
2022/01/18 08:12:48;;;;;;;14.50;3.17;;;6.70;99.90;;;;;;4987163;28;20253;-63
2022/01/18 08:15:20;;;;;;;13.33;3.50;;;6.90;99.90;;;;;;4989059;28;20257;-63
2022/01/18 08:17:53;;;;;;;18.20;3.00;;;6.90;99.90;;;;;;4988358;28;20593;-64
2022/01/18 08:20:22;;;;;;;17.33;3.13;;;6.70;99.90;;;;;;4988389;28;20242;-64
2022/01/18 08:22:50;;;;;;;20.27;3.03;;;6.70;99.90;;;;;;4986903;28;20288;-62
2022/01/18 08:25:18;;;;;;;17.00;3.10;;;6.70;99.90;;;;;;4989328;28;20242;-63
2022/01/18 08:27:46;;;;;;;20.00;3.20;;;6.70;99.90;;;;;;4988822;28;20245;-63
2022/01/18 08:30:19;;;;;;;17.17;3.47;;;6.60;99.90;;;;;;4988820;28;20248;-63
2022/01/18 08:32:49;;;;;;;18.33;3.67;;;6.70;99.90;;;;;;4987022;28;20280;-64
2022/01/18 08:35:19;;;;;;;19.13;3.27;;;6.70;99.90;;;;;;4977883;28;20237;-64
2022/01/18 08:37:49;;;;;;;11.87;2.37;;;6.70;99.90;;;;;;4988497;28;20579;-64
2022/01/18 08:40:17;;;;;;;18.40;3.63;;;6.80;99.90;;;;;;4988179;28;20667;-64
2022/01/18 08:42:48;;;;;;;17.07;3.37;;;6.80;99.90;;;;;;4986276;28;21502;-63
2022/01/18 08:45:17;;;;;;;14.53;3.07;;;6.70;99.90;;;;;;4988527;28;20249;-64
2022/01/18 08:47:48;;;;;;;18.70;3.10;;;6.70;99.90;;;;;;4988184;28;20238;-64
2022/01/18 08:50:19;;;;;;;19.20;4.00;;;6.70;99.90;;;;;;4988769;28;20250;-64
2022/01/18 08:52:53;;;;;;;16.07;3.00;;;6.70;99.90;;;;;;4985967;28;20269;-63
2022/01/18 08:55:21;;;;;;;20.53;3.37;;;6.70;99.90;;;;;;4988224;28;20267;-65
2022/01/18 08:57:50;;;;;;;12.53;2.37;;;6.80;99.90;;;;;;4988376;28;20661;-66
2022/01/18 09:00:22;;;;;;;10.17;2.40;;;6.90;99.90;;;;;;4987985;28;20689;-66
2022/01/18 09:02:50;;;;;;;18.83;2.90;;;6.90;99.90;;;;;;4986511;28;20249;-63
2022/01/18 09:05:22;;;;;;;17.97;3.17;;;6.90;99.90;;;;;;4988307;28;20269;-66
2022/01/18 09:07:51;;;;;;;18.47;3.60;;;6.90;99.90;;;;;;4987472;28;20241;-65
2022/01/18 09:10:19;;;;;;;17.00;2.47;;;6.90;99.90;;;;;;4987767;28;20245;-67
2022/01/18 09:12:48;;;;;;;13.13;2.60;;;6.90;99.90;;;;;;4985536;28;20241;-66
2022/01/18 09:15:16;;;;;;;16.47;3.17;;;7.00;99.90;;;;;;4988058;28;20611;-66
2022/01/18 09:17:45;;;;;;;17.87;3.03;;;7.00;99.90;;;;;;4987666;28;20234;-66
2022/01/18 09:20:14;;;;;;;12.70;2.97;;;7.10;99.90;;;;;;4988070;28;20614;-65
2022/01/18 09:22:44;;;;;;;14.47;2.93;;;7.10;99.90;;;;;;4986039;28;20296;-65
2022/01/18 09:25:20;;;;;;;12.17;3.53;;;7.10;99.90;;;;;;4968291;28;20711;-65
2022/01/18 09:27:48;;;;;;;12.70;2.27;;;7.20;99.90;;;;;;4968090;28;20270;-65
2022/01/18 09:30:17;;;;;;;12.00;2.80;;;7.20;99.90;;;;;;4968588;28;20251;-66
2022/01/18 09:32:49;;;;;;;19.27;3.37;;;7.20;99.90;;;;;;4966845;28;20266;-66
2022/01/18 09:35:18;;;;;;;17.73;2.57;;;7.20;99.90;;;;;;4967768;28;20247;-66
2022/01/18 09:37:47;;;;;;;14.03;2.93;;;7.20;99.90;;;;;;4967596;28;20728;-65
2022/01/18 09:40:18;;;;;;;13.03;2.47;;;7.20;99.90;;;;;;4967651;28;20258;-66
2022/01/18 09:42:47;;;;;;;12.33;3.17;;;7.20;99.90;;;;;;4985906;28;20273;-66
2022/01/18 09:45:17;;;;;;;18.70;3.20;;;7.20;99.90;;;;;;4986651;28;20242;-65
2022/01/18 09:47:51;;;;;;;16.60;3.93;;;7.20;99.90;;;;;;4986582;28;20304;-65
2022/01/18 09:50:22;;;;;;;15.33;2.50;;;7.20;99.90;;;;;;4987282;28;20250;-66
2022/01/18 09:52:54;;;;;;;13.63;2.67;;;7.20;99.90;;;;;;4985495;28;20654;-65
2022/01/18 09:55:26;;;;;;;13.20;2.50;;;7.30;99.90;;;;;;4986942;28;20253;-65
2022/01/18 09:57:58;;;;;;;14.10;2.80;;;7.30;99.90;;;;;;4987177;28;20255;-66
2022/01/18 10:00:30;;;;;;;14.23;3.10;;;7.40;99.90;;;;;;4987070;28;20611;-65
2022/01/18 10:02:59;;;;;;;17.10;2.87;;;7.40;99.90;;;;;;4985578;28;20268;-65
2022/01/18 10:05:33;;;;;;;16.60;3.13;;;7.40;99.90;;;;;;4986248;28;20241;-65
2022/01/18 10:08:05;;;;;;;15.33;2.87;;;7.50;99.90;;;;;;4986614;28;20650;-66
2022/01/18 10:10:38;;;;;;;18.30;2.93;;;7.60;99.90;;;;;;4986789;28;20249;-66
2022/01/18 10:13:16;;;;;;;12.23;2.40;;;7.60;99.90;;;;;;4985904;28;20376;-66
2022/01/18 10:16:07;;;;;;;12.73;2.60;;;7.60;99.90;;;;;;4986804;28;20249;-65
2022/01/18 10:18:45;;;;;;;14.10;2.73;;;7.60;99.90;;;;;;4986331;28;20238;-66
2022/01/18 10:21:28;;;;;;;14.33;3.00;;;7.60;99.90;;;;;;4986691;28;20264;-65
2022/01/18 10:24:15;;;;;;;16.20;2.80;;;7.60;99.90;;;;;;4985239;28;20665;-65
2022/01/18 10:26:48;;;;;;;15.17;3.07;;;7.60;99.90;;;;;;4986227;28;20331;-66
2022/01/18 10:29:19;;;;;;;13.80;2.60;;;7.70;99.90;;;;;;4985796;28;20253;-66
2022/01/18 10:31:57;;;;;;;17.83;2.90;;;7.70;99.90;;;;;;4984600;28;20250;-65
2022/01/18 10:34:40;;;;;;;14.20;2.40;;;7.80;99.90;;;;;;4984410;28;20244;-66
2022/01/18 10:37:12;;;;;;;12.77;2.67;;;7.90;99.90;;;;;;4986160;28;20241;-65
2022/01/18 10:39:43;;;;;;;13.60;2.57;;;7.90;99.90;;;;;;4986252;28;20249;-66
2022/01/18 10:42:18;;;;;;;11.83;2.57;;;8.00;99.90;;;;;;4984716;28;20254;-64
2022/01/18 10:44:47;;;;;;;14.70;3.10;;;8.00;99.90;;;;;;4985152;28;20717;-64
2022/01/18 10:47:17;;;;;;;13.17;2.63;;;8.00;99.90;;;;;;4986334;28;20248;-63
2022/01/18 10:49:47;;;;;;;9.93;2.27;;;8.10;99.90;;;;;;4985770;28;20242;-64
2022/01/18 10:52:21;;;;;;;14.83;2.60;;;8.00;99.90;;;;;;4984706;28;20333;-62
2022/01/18 10:54:54;;;;;;;9.53;2.30;;;8.00;99.90;;;;;;4986120;28;20336;-63
2022/01/18 10:57:24;;;;;;;10.87;2.23;;;8.00;99.90;;;;;;4985724;28;20242;-63
2022/01/18 10:59:57;;;;;;;11.07;2.43;;;8.00;99.90;;;;;;4985711;28;20237;-65
2022/01/18 11:02:27;;;;;;;11.93;2.87;;;7.90;99.90;;;;;;4986691;28;20343;-64
2022/01/18 11:04:57;;;;;;;10.93;2.60;;;8.00;99.90;;;;;;4989346;28;21020;-63
2022/01/18 11:07:27;;;;;;;12.10;2.70;;;7.90;99.90;;;;;;4989465;28;20795;-64
2022/01/18 11:10:03;;;;;;;13.47;2.60;;;8.00;99.90;;;;;;4989820;28;20686;-62
2022/01/18 11:12:42;;;;;;;9.13;2.27;;;7.90;99.90;;;;;;4988539;28;20241;-64
2022/01/18 11:15:21;;;;;;;9.43;2.33;;;7.90;99.90;;;;;;4989802;28;20255;-63
2022/01/18 11:17:56;;;;;;;10.80;2.87;;;7.80;99.90;;;;;;4989842;28;20324;-64
2022/01/18 11:20:25;;;;;;;13.60;3.63;;;7.80;99.90;;;;;;4989859;28;20245;-65
2022/01/18 11:22:57;;;;;;;10.67;3.30;;;7.70;99.90;;;;;;4988479;28;20238;-64
2022/01/18 11:25:28;;;;;;;6.57;2.40;;;7.70;99.90;;;;;;4989624;28;20683;-64
2022/01/18 11:27:58;;;;;;;8.90;2.83;;;7.70;99.90;;;;;;4988485;28;21102;-64
2022/01/18 11:30:31;;;;;;;7.10;2.00;;;7.60;99.90;;;;;;4990065;28;20667;-64
2022/01/18 11:33:02;;;;;;;8.37;2.37;;;7.70;99.90;;;;;;4987229;28;20333;-63
2022/01/18 11:35:44;;;;;;;7.27;2.37;;;7.80;99.90;;;;;;4988485;28;20230;-63
2022/01/18 11:38:23;;;;;;;7.63;2.00;;;7.70;99.90;;;;;;4989254;28;20317;-64
2022/01/18 11:40:54;;;;;;;4.53;2.10;;;7.70;99.90;;;;;;4988728;28;20296;-62
2022/01/18 11:43:36;;;;;;;9.27;2.37;;;7.70;99.90;;;;;;4987696;28;20238;-64
2022/01/18 11:46:24;;;;;;;7.47;2.90;;;7.80;99.90;;;;;;4989032;28;20261;-64
2022/01/18 11:49:00;;;;;;;7.80;2.33;;;7.80;99.90;;;;;;4988566;28;20245;-63
2022/01/18 11:51:38;;;;;;;7.70;2.30;;;7.80;99.90;;;;;;4988149;28;20336;-64
2022/01/18 11:54:31;;;;;;;9.83;3.20;;;7.80;99.90;;;;;;4988087;28;20237;-64
2022/01/18 11:56:59;;;;;;;9.50;2.80;;;7.80;99.90;;;;;;4987801;28;20737;-65
2022/01/18 11:59:37;;;;;;;6.83;3.03;;;7.70;99.90;;;;;;4988232;28;20241;-63
2022/01/18 12:02:05;;;;;;;10.67;3.17;;;7.70;99.90;;;;;;4987823;28;20284;-64
2022/01/18 12:05:08;;;;;;;10.13;2.83;;;7.80;99.90;;;;;;4989184;28;20356;-64
2022/01/18 12:07:55;;;;;;;8.60;2.90;;;7.90;99.90;;;;;;4968692;28;20324;-63
2022/01/18 12:10:46;;;;;;;7.33;2.80;;;7.80;99.90;;;;;;4968734;28;20242;-64
2022/01/18 12:13:26;;;;;;;11.90;3.43;;;7.80;99.90;;;;;;4967662;28;20627;-64
2022/01/18 12:15:57;;;;;;;10.70;3.70;;;7.80;99.90;;;;;;4969729;28;20252;-64
2022/01/18 12:18:27;;;;;;;10.47;3.20;;;7.80;99.90;;;;;;4969689;28;20234;-62
2022/01/18 12:20:58;;;;;;;6.77;3.20;;;7.80;99.90;;;;;;4968234;28;20611;-63
2022/01/18 12:23:27;;;;;;;8.27;3.80;;;7.80;99.90;;;;;;4967822;28;20242;-64
2022/01/18 12:26:00;;;;;;;7.70;3.67;;;7.70;99.90;;;;;;4968640;28;20333;-64
2022/01/18 12:28:52;;;;;;;9.00;3.63;;;7.70;99.90;;;;;;4969047;28;20652;-64
2022/01/18 12:35:02;;;;;;;7.87;3.43;;;7.60;99.90;;;;;;4968269;28;20246;-63
2022/01/18 12:37:43;;;;;;;6.17;3.73;;;7.70;99.90;;;;;;4968673;28;20249;-63
2022/01/18 12:40:31;;;;;;;5.67;3.37;;;7.70;99.90;;;;;;4969031;28;20381;-63
2022/01/18 12:45:58;;;;;;;9.17;4.00;;;7.60;99.90;;;;;;4968045;28;20273;-64
2022/01/18 12:48:27;;;;;;;5.47;3.73;;;7.60;99.90;;;;;;4967851;28;20242;-64
2022/01/18 12:51:00;;;;;;;5.63;4.30;;;7.60;99.90;;;;;;4968374;28;20247;-63
2022/01/18 12:53:36;;;;;;;7.97;4.03;;;7.60;99.90;;;;;;4967527;28;20247;-64
2022/01/18 12:56:06;;;;;;;6.13;3.57;;;7.60;99.90;;;;;;4968634;28;20278;-63
2022/01/18 12:58:38;;;;;;;5.43;2.87;;;7.50;99.90;;;;;;4968488;28;20293;-64
2022/01/18 13:01:08;;;;;;;6.57;3.17;;;7.50;99.90;;;;;;4968873;28;20253;-63
2022/01/18 13:03:38;;;;;;;4.00;2.70;;;7.50;99.90;;;;;;4967299;28;20246;-64
2022/01/18 13:06:09;;;;;;;5.37;2.30;;;7.50;99.90;;;;;;4968298;28;20305;-64
2022/01/18 13:08:43;;;;;;;4.17;2.50;;;7.50;99.90;;;;;;4968068;28;20342;-64
2022/01/18 13:11:13;;;;;;;4.47;2.00;;;7.50;99.90;;;;;;4968223;28;20249;-64
2022/01/18 13:13:49;;;;;;;4.00;2.27;;;7.50;99.90;;;;;;4966289;28;20246;-63
2022/01/18 13:27:30;;;;;;;3.83;1.97;;;7.40;99.90;;;;;;4986763;28;20249;-64
2022/01/18 13:30:08;;;;;;;2.37;1.90;;;7.40;99.90;;;;;;4987258;28;20669;-64
2022/01/18 13:32:42;;;;;;;3.07;1.80;;;7.30;99.90;;;;;;4986311;28;20249;-64
2022/01/18 13:35:10;;;;;;;2.83;1.90;;;7.20;99.90;;;;;;4987275;28;20242;-63
2022/01/18 13:37:38;;;;;;;3.93;2.60;;;7.30;99.90;;;;;;4987019;28;20237;-64
2022/01/18 13:40:09;;;;;;;3.37;2.47;;;7.20;99.90;;;;;;4987227;28;20667;-62
2022/01/18 13:42:40;;;;;;;3.50;2.00;;;7.20;99.90;;;;;;4985960;28;20245;-64
2022/01/18 13:45:16;;;;;;;2.87;2.00;;;7.10;99.90;;;;;;4987265;28;20242;-64
2022/01/18 13:47:49;;;;;;;3.20;1.93;;;7.10;99.90;;;;;;4986999;28;20288;-63
2022/01/18 13:50:42;;;;;;;4.73;2.30;;;7.10;99.90;;;;;;4987073;28;20252;-64
2022/01/18 13:53:13;;;;;;;5.73;2.20;;;7.10;99.90;;;;;;4985687;28;20333;-63
2022/01/18 13:55:48;;;;;;;3.87;1.50;;;7.00;99.90;;;;;;4986341;28;20746;-63
2022/01/18 13:58:24;;;;;;;5.30;1.83;;;7.00;99.90;;;;;;5001254;28;20241;-65
2022/01/18 14:01:06;;;;;;;2.80;1.50;;;7.00;99.90;;;;;;4986808;28;20914;-63
2022/01/18 14:03:39;;;;;;;2.37;1.53;;;7.00;99.90;;;;;;4985683;28;20237;-65
2022/01/18 14:06:11;;;;;;;3.17;1.73;;;7.00;99.90;;;;;;4986510;28;20730;-64
2022/01/18 14:08:46;;;;;;;3.17;1.67;;;7.00;99.90;;;;;;4986311;28;20241;-64
2022/01/18 14:11:18;;;;;;;5.33;1.70;;;7.00;99.90;;;;;;4986428;28;20241;-63
2022/01/18 14:13:48;;;;;;;2.40;1.53;;;7.00;99.90;;;;;;4984281;28;20269;-64
2022/01/18 14:16:27;;;;;;;4.27;1.63;;;7.10;99.90;;;;;;4984686;28;20250;-65
2022/01/18 14:19:01;;;;;;;1.80;1.67;;;7.10;99.90;;;;;;4985559;28;20337;-64
2022/01/18 14:21:33;;;;;;;4.40;1.80;;;7.10;99.90;;;;;;4986145;28;20675;-65